FDX122 KRSW-MRLB
Flight info
| Callsign | FDX122 |
|---|---|
| Flight time | 2h 28m |
| Altitude | 34000 |
| Route | FEMID DCT MCLAW Y442 FUNDI/N0468F330 UM335 JABIR/N0467F350 UM335 ALVEK UM328 IMOLA OVADO1V |
| Aircraft | B738/M-SDE2E3FGHIRWXY/LB1 |
Departure
| Time | 2026-05-04 02:25 |
|---|---|
| Airport | Southwest Florida International Airport (KRSW) |
Arrival
| Time | 2026-05-04 04:53 |
|---|---|
| Airport | Daniel Oduber Quirós International Airport (MRLB) |
| Time | Latitude | Longitude | Altitude | Speed | Heading |
|---|---|---|---|---|---|
| 2026-05-04 02:04 | 26.53378 | -81.76616 | 19 ft | 0 kts | 327° |
| 2026-05-04 02:18 | 26.53374 | -81.76613 | 37 ft | 2 kts | 324° |
| 2026-05-04 02:19 | 26.53364 | -81.76604 | 37 ft | 2 kts | 307° |
| 2026-05-04 02:19 | 26.53357 | -81.76591 | 37 ft | 2 kts | 291° |
| 2026-05-04 02:19 | 26.53353 | -81.76577 | 34 ft | 2 kts | 274° |
| 2026-05-04 02:19 | 26.53353 | -81.76563 | 36 ft | 2 kts | 258° |
| 2026-05-04 02:20 | 26.53357 | -81.76549 | 34 ft | 2 kts | 242° |
| 2026-05-04 02:20 | 26.53359 | -81.76544 | 33 ft | 0 kts | 236° |
| 2026-05-04 02:21 | 26.53351 | -81.76553 | 33 ft | 5 kts | 219° |
| 2026-05-04 02:22 | 26.53291 | -81.76537 | 33 ft | 12 kts | 145° |
| 2026-05-04 02:22 | 26.53218 | -81.76479 | 32 ft | 13 kts | 143° |
| 2026-05-04 02:22 | 26.53136 | -81.76467 | 32 ft | 13 kts | 220° |
| 2026-05-04 02:22 | 26.53082 | -81.76547 | 33 ft | 14 kts | 233° |
| 2026-05-04 02:23 | 26.53021 | -81.76641 | 33 ft | 15 kts | 234° |
| 2026-05-04 02:23 | 26.52958 | -81.76738 | 33 ft | 16 kts | 234° |
| 2026-05-04 02:23 | 26.52893 | -81.76838 | 36 ft | 16 kts | 234° |
| 2026-05-04 02:23 | 26.52829 | -81.76936 | 36 ft | 16 kts | 234° |
| 2026-05-04 02:24 | 26.52764 | -81.77031 | 35 ft | 15 kts | 219° |
| 2026-05-04 02:24 | 26.52677 | -81.76996 | 35 ft | 14 kts | 115° |
| 2026-05-04 02:24 | 26.52713 | -81.76898 | 36 ft | 14 kts | 54° |
| 2026-05-04 02:24 | 26.52857 | -81.76680 | 34 ft | 68 kts | 53° |
| 2026-05-04 02:25 | 26.53275 | -81.76042 | 34 ft | 132 kts | 54° |
| 2026-05-04 02:25 | 26.53920 | -81.75069 | 220 ft | 167 kts | 52° |
| 2026-05-04 02:25 | 26.54610 | -81.74064 | 1109 ft | 161 kts | 52° |
| 2026-05-04 02:25 | 26.55281 | -81.73091 | 1886 ft | 162 kts | 53° |
| 2026-05-04 02:26 | 26.56020 | -81.71991 | 2222 ft | 193 kts | 54° |
| 2026-05-04 02:26 | 26.56825 | -81.70673 | 2419 ft | 219 kts | 68° |
| 2026-05-04 02:26 | 26.56871 | -81.68936 | 2730 ft | 239 kts | 107° |
| 2026-05-04 02:26 | 26.55843 | -81.67393 | 3128 ft | 261 kts | 142° |
| 2026-05-04 02:27 | 26.54242 | -81.66390 | 3904 ft | 268 kts | 154° |
| 2026-05-04 02:27 | 26.52497 | -81.65556 | 4631 ft | 276 kts | 158° |
| 2026-05-04 02:27 | 26.50701 | -81.64743 | 5439 ft | 278 kts | 159° |
| 2026-05-04 02:27 | 26.48900 | -81.63924 | 6247 ft | 282 kts | 160° |
| 2026-05-04 02:28 | 26.47065 | -81.63076 | 6962 ft | 287 kts | 160° |
| 2026-05-04 02:28 | 26.45247 | -81.62223 | 7737 ft | 288 kts | 160° |
| 2026-05-04 02:28 | 26.43392 | -81.61342 | 8538 ft | 289 kts | 160° |
| 2026-05-04 02:28 | 26.41535 | -81.60454 | 9308 ft | 292 kts | 161° |
| 2026-05-04 02:29 | 26.39658 | -81.59551 | 10066 ft | 295 kts | 161° |
| 2026-05-04 02:29 | 26.37744 | -81.58630 | 10479 ft | 311 kts | 161° |
| 2026-05-04 02:29 | 26.35672 | -81.57637 | 10645 ft | 334 kts | 161° |
| 2026-05-04 02:29 | 26.33468 | -81.56576 | 10800 ft | 356 kts | 161° |
| 2026-05-04 02:30 | 26.31139 | -81.55450 | 11034 ft | 372 kts | 160° |
| 2026-05-04 02:30 | 26.29524 | -81.54667 | 11343 ft | 377 kts | 160° |
| 2026-05-04 02:30 | 26.27104 | -81.53491 | 11943 ft | 381 kts | 161° |
| 2026-05-04 02:30 | 26.24675 | -81.52311 | 12578 ft | 383 kts | 161° |
| 2026-05-04 02:31 | 26.22257 | -81.51138 | 13201 ft | 385 kts | 161° |
| 2026-05-04 02:31 | 26.19780 | -81.49939 | 13789 ft | 389 kts | 161° |
| 2026-05-04 02:31 | 26.17286 | -81.48734 | 14327 ft | 392 kts | 162° |
| 2026-05-04 02:31 | 26.14768 | -81.47518 | 14871 ft | 394 kts | 162° |
| 2026-05-04 02:32 | 26.12236 | -81.46296 | 15405 ft | 397 kts | 162° |
| 2026-05-04 02:32 | 26.09674 | -81.45186 | 15913 ft | 395 kts | 169° |
| 2026-05-04 02:32 | 26.07027 | -81.44364 | 16413 ft | 396 kts | 172° |
| 2026-05-04 02:32 | 26.04350 | -81.43613 | 16915 ft | 398 kts | 172° |
| 2026-05-04 02:33 | 26.01654 | -81.42878 | 17412 ft | 400 kts | 173° |
| 2026-05-04 02:33 | 25.98940 | -81.42135 | 17879 ft | 403 kts | 173° |
| 2026-05-04 02:33 | 25.96205 | -81.41378 | 18329 ft | 406 kts | 173° |
| 2026-05-04 02:33 | 25.93490 | -81.40615 | 18724 ft | 409 kts | 172° |
| 2026-05-04 02:34 | 25.90682 | -81.39819 | 19125 ft | 411 kts | 172° |
| 2026-05-04 02:34 | 25.87936 | -81.39035 | 19514 ft | 414 kts | 172° |
| 2026-05-04 02:34 | 25.85143 | -81.38234 | 19909 ft | 416 kts | 172° |
| 2026-05-04 02:34 | 25.82335 | -81.37429 | 20284 ft | 418 kts | 172° |
| 2026-05-04 02:35 | 25.79508 | -81.36619 | 20656 ft | 420 kts | 172° |
| 2026-05-04 02:35 | 25.76666 | -81.35804 | 21017 ft | 423 kts | 172° |
| 2026-05-04 02:35 | 25.73810 | -81.34986 | 21377 ft | 425 kts | 172° |
| 2026-05-04 02:35 | 25.70937 | -81.34163 | 21731 ft | 427 kts | 172° |
| 2026-05-04 02:36 | 25.68047 | -81.33336 | 22080 ft | 430 kts | 172° |
| 2026-05-04 02:36 | 25.65143 | -81.32506 | 22412 ft | 432 kts | 172° |
| 2026-05-04 02:36 | 25.62222 | -81.31671 | 22735 ft | 435 kts | 172° |
| 2026-05-04 02:36 | 25.59285 | -81.30832 | 23051 ft | 437 kts | 172° |
| 2026-05-04 02:37 | 25.56327 | -81.29988 | 23351 ft | 440 kts | 172° |
| 2026-05-04 02:37 | 25.53356 | -81.29140 | 23647 ft | 442 kts | 172° |
| 2026-05-04 02:37 | 25.50366 | -81.28287 | 23893 ft | 444 kts | 172° |
| 2026-05-04 02:37 | 25.47401 | -81.27442 | 24141 ft | 447 kts | 172° |
| 2026-05-04 02:38 | 25.44385 | -81.26583 | 24394 ft | 448 kts | 172° |
| 2026-05-04 02:38 | 25.41359 | -81.25720 | 24656 ft | 450 kts | 172° |
| 2026-05-04 02:38 | 25.38318 | -81.24855 | 24899 ft | 452 kts | 172° |
| 2026-05-04 02:38 | 25.35277 | -81.23989 | 25145 ft | 454 kts | 172° |
| 2026-05-04 02:39 | 25.32208 | -81.23117 | 25389 ft | 455 kts | 172° |
| 2026-05-04 02:39 | 25.29133 | -81.22243 | 25621 ft | 457 kts | 172° |
| 2026-05-04 02:39 | 25.26040 | -81.21365 | 25850 ft | 459 kts | 172° |
| 2026-05-04 02:39 | 25.22942 | -81.20485 | 26080 ft | 460 kts | 172° |
| 2026-05-04 02:40 | 25.19833 | -81.19603 | 26310 ft | 462 kts | 172° |
| 2026-05-04 02:40 | 25.16714 | -81.18718 | 26525 ft | 464 kts | 172° |
| 2026-05-04 02:40 | 25.13583 | -81.17831 | 26736 ft | 465 kts | 172° |
| 2026-05-04 02:40 | 25.10477 | -81.16951 | 26953 ft | 467 kts | 172° |
| 2026-05-04 02:41 | 25.07326 | -81.16059 | 27153 ft | 468 kts | 172° |
| 2026-05-04 02:41 | 25.04162 | -81.15163 | 27362 ft | 470 kts | 172° |
| 2026-05-04 02:41 | 25.00988 | -81.14266 | 27552 ft | 472 kts | 172° |
| 2026-05-04 02:41 | 24.97795 | -81.13363 | 27739 ft | 474 kts | 172° |
| 2026-05-04 02:42 | 24.94590 | -81.12458 | 27924 ft | 475 kts | 172° |
| 2026-05-04 02:42 | 24.91418 | -81.11562 | 28107 ft | 477 kts | 172° |
| 2026-05-04 02:42 | 24.88204 | -81.10654 | 28344 ft | 477 kts | 172° |
| 2026-05-04 02:42 | 24.84986 | -81.09745 | 28652 ft | 475 kts | 172° |
| 2026-05-04 02:43 | 24.81796 | -81.08844 | 29023 ft | 473 kts | 172° |
| 2026-05-04 02:43 | 24.78605 | -81.07943 | 29342 ft | 472 kts | 172° |
| 2026-05-04 02:43 | 24.75420 | -81.07047 | 29606 ft | 472 kts | 172° |
| 2026-05-04 02:43 | 24.72238 | -81.06152 | 29879 ft | 472 kts | 172° |
| 2026-05-04 02:44 | 24.69044 | -81.05254 | 30152 ft | 472 kts | 172° |
| 2026-05-04 02:44 | 24.65866 | -81.04360 | 30403 ft | 471 kts | 172° |
| 2026-05-04 02:44 | 24.62687 | -81.03466 | 30652 ft | 471 kts | 172° |
| 2026-05-04 02:44 | 24.59519 | -81.02576 | 30896 ft | 470 kts | 172° |
| 2026-05-04 02:45 | 24.56361 | -81.01805 | 31117 ft | 466 kts | 178° |
| 2026-05-04 02:45 | 24.53166 | -81.01528 | 31353 ft | 457 kts | 186° |
| 2026-05-04 02:45 | 24.49988 | -81.01510 | 31612 ft | 456 kts | 186° |
| 2026-05-04 02:45 | 24.46814 | -81.01524 | 31855 ft | 456 kts | 187° |
| 2026-05-04 02:46 | 24.43645 | -81.01539 | 32088 ft | 456 kts | 186° |
| 2026-05-04 02:46 | 24.40470 | -81.01541 | 32322 ft | 456 kts | 186° |
| 2026-05-04 02:46 | 24.37300 | -81.01528 | 32603 ft | 455 kts | 186° |
| 2026-05-04 02:46 | 24.34135 | -81.01506 | 32861 ft | 455 kts | 186° |
| 2026-05-04 02:47 | 24.30969 | -81.01479 | 33040 ft | 456 kts | 186° |
| 2026-05-04 02:47 | 24.27790 | -81.01450 | 33028 ft | 458 kts | 186° |
| 2026-05-04 02:47 | 24.21423 | -81.01391 | 33034 ft | 456 kts | 186° |
| 2026-05-04 02:48 | 24.15086 | -81.01332 | 33037 ft | 454 kts | 186° |
| 2026-05-04 02:48 | 24.08774 | -81.01277 | 33039 ft | 453 kts | 186° |
| 2026-05-04 02:49 | 24.02517 | -81.01222 | 33048 ft | 453 kts | 186° |
| 2026-05-04 02:49 | 23.96218 | -81.01102 | 33047 ft | 455 kts | 185° |
| 2026-05-04 02:50 | 23.89879 | -81.00810 | 33044 ft | 457 kts | 184° |
| 2026-05-04 02:50 | 23.83489 | -81.00503 | 33046 ft | 458 kts | 185° |
| 2026-05-04 02:51 | 23.77106 | -81.00218 | 33043 ft | 460 kts | 185° |
| 2026-05-04 02:51 | 23.70739 | -80.99945 | 33049 ft | 462 kts | 185° |
| 2026-05-04 02:52 | 23.64268 | -80.99669 | 33044 ft | 463 kts | 185° |
| 2026-05-04 02:52 | 23.57871 | -80.99396 | 33051 ft | 463 kts | 185° |
| 2026-05-04 02:53 | 23.51423 | -80.99120 | 33040 ft | 464 kts | 185° |
| 2026-05-04 02:53 | 23.44961 | -80.98844 | 33039 ft | 464 kts | 185° |
| 2026-05-04 02:54 | 23.38546 | -80.98570 | 33041 ft | 463 kts | 185° |
| 2026-05-04 02:54 | 23.32098 | -80.98295 | 33038 ft | 462 kts | 185° |
| 2026-05-04 02:55 | 23.22472 | -80.97893 | 33042 ft | 461 kts | 185° |
| 2026-05-04 02:56 | 23.16059 | -80.97637 | 33048 ft | 461 kts | 185° |
| 2026-05-04 02:56 | 23.09643 | -80.97379 | 33042 ft | 461 kts | 185° |
| 2026-05-04 02:57 | 23.03296 | -80.97307 | 33041 ft | 453 kts | 193° |
| 2026-05-04 02:57 | 22.97302 | -80.98854 | 33049 ft | 438 kts | 207° |
| 2026-05-04 02:58 | 22.91605 | -81.01192 | 33042 ft | 438 kts | 207° |
| 2026-05-04 02:58 | 22.85892 | -81.03536 | 33049 ft | 440 kts | 207° |
| 2026-05-04 02:59 | 22.80150 | -81.05856 | 33049 ft | 441 kts | 207° |
| 2026-05-04 02:59 | 22.74384 | -81.08165 | 33045 ft | 442 kts | 206° |
| 2026-05-04 03:00 | 22.68592 | -81.10478 | 33052 ft | 444 kts | 206° |
| 2026-05-04 03:00 | 22.62799 | -81.12790 | 33046 ft | 445 kts | 206° |
| 2026-05-04 03:01 | 22.56988 | -81.15107 | 33051 ft | 445 kts | 206° |
| 2026-05-04 03:01 | 22.51206 | -81.17411 | 33045 ft | 446 kts | 206° |
| 2026-05-04 03:02 | 22.45376 | -81.19732 | 33043 ft | 446 kts | 206° |
| 2026-05-04 03:02 | 22.39545 | -81.22052 | 33045 ft | 446 kts | 206° |
| 2026-05-04 03:03 | 22.33724 | -81.24365 | 33053 ft | 446 kts | 206° |
| 2026-05-04 03:03 | 22.27910 | -81.26674 | 33049 ft | 445 kts | 206° |
| 2026-05-04 03:04 | 22.22114 | -81.28974 | 33041 ft | 445 kts | 206° |
| 2026-05-04 03:04 | 22.16300 | -81.31279 | 33043 ft | 445 kts | 206° |
| 2026-05-04 03:05 | 22.10489 | -81.33580 | 33045 ft | 445 kts | 206° |
| 2026-05-04 03:05 | 22.04671 | -81.35883 | 33045 ft | 445 kts | 206° |
| 2026-05-04 03:06 | 21.98860 | -81.38180 | 33046 ft | 445 kts | 206° |
| 2026-05-04 03:06 | 21.93044 | -81.40478 | 33042 ft | 445 kts | 206° |
| 2026-05-04 03:07 | 21.87221 | -81.42777 | 33040 ft | 446 kts | 205° |
| 2026-05-04 03:07 | 21.81432 | -81.45060 | 33045 ft | 446 kts | 205° |
| 2026-05-04 03:08 | 21.75588 | -81.47362 | 33044 ft | 447 kts | 205° |
| 2026-05-04 03:08 | 21.69735 | -81.49667 | 33051 ft | 448 kts | 205° |
| 2026-05-04 03:09 | 21.63869 | -81.51975 | 33039 ft | 449 kts | 205° |
| 2026-05-04 03:09 | 21.58156 | -81.54575 | 33049 ft | 443 kts | 213° |
| 2026-05-04 03:10 | 21.52788 | -81.57766 | 33038 ft | 444 kts | 214° |
| 2026-05-04 03:10 | 21.47395 | -81.61004 | 33047 ft | 444 kts | 214° |
| 2026-05-04 03:11 | 21.41978 | -81.64222 | 33039 ft | 445 kts | 213° |
| 2026-05-04 03:11 | 21.36538 | -81.67431 | 33043 ft | 446 kts | 213° |
| 2026-05-04 03:12 | 21.31084 | -81.70640 | 33042 ft | 447 kts | 213° |
| 2026-05-04 03:12 | 21.25659 | -81.73828 | 33041 ft | 447 kts | 213° |
| 2026-05-04 03:13 | 21.20182 | -81.77045 | 33048 ft | 448 kts | 213° |
| 2026-05-04 03:13 | 21.14710 | -81.80257 | 33043 ft | 449 kts | 213° |
| 2026-05-04 03:14 | 21.09224 | -81.83474 | 33044 ft | 449 kts | 213° |
| 2026-05-04 03:14 | 21.03777 | -81.86666 | 33045 ft | 449 kts | 213° |
| 2026-05-04 03:15 | 20.98282 | -81.89883 | 33044 ft | 450 kts | 213° |
| 2026-05-04 03:15 | 20.92784 | -81.93100 | 33045 ft | 450 kts | 213° |
| 2026-05-04 03:16 | 20.87289 | -81.96311 | 33043 ft | 450 kts | 213° |
| 2026-05-04 03:16 | 20.81792 | -81.99521 | 33045 ft | 450 kts | 212° |
| 2026-05-04 03:17 | 20.76293 | -82.02730 | 33042 ft | 450 kts | 212° |
| 2026-05-04 03:17 | 20.70793 | -82.05937 | 33044 ft | 450 kts | 212° |
| 2026-05-04 03:18 | 20.65322 | -82.09124 | 33043 ft | 450 kts | 212° |
| 2026-05-04 03:18 | 20.59813 | -82.12331 | 33044 ft | 450 kts | 212° |
| 2026-05-04 03:19 | 20.54302 | -82.15536 | 33045 ft | 451 kts | 212° |
| 2026-05-04 03:19 | 20.48790 | -82.18739 | 33043 ft | 451 kts | 212° |
| 2026-05-04 03:20 | 20.43307 | -82.21923 | 33046 ft | 451 kts | 212° |
| 2026-05-04 03:20 | 20.37791 | -82.25123 | 33044 ft | 451 kts | 212° |
| 2026-05-04 03:21 | 20.32279 | -82.28319 | 33046 ft | 451 kts | 212° |
| 2026-05-04 03:21 | 20.27688 | -82.30979 | 33040 ft | 451 kts | 212° |
| 2026-05-04 03:22 | 20.21276 | -82.34690 | 33042 ft | 451 kts | 212° |
| 2026-05-04 03:22 | 20.15754 | -82.37884 | 33043 ft | 452 kts | 212° |
| 2026-05-04 03:23 | 20.11123 | -82.40561 | 33042 ft | 452 kts | 212° |
| 2026-05-04 03:23 | 20.05512 | -82.43614 | 33039 ft | 454 kts | 209° |
| 2026-05-04 03:24 | 19.99823 | -82.46436 | 33044 ft | 454 kts | 208° |
| 2026-05-04 03:24 | 19.94069 | -82.49268 | 33044 ft | 455 kts | 208° |
| 2026-05-04 03:25 | 19.88337 | -82.52118 | 33042 ft | 455 kts | 208° |
| 2026-05-04 03:25 | 19.82601 | -82.54988 | 33045 ft | 455 kts | 208° |
| 2026-05-04 03:26 | 19.76871 | -82.57859 | 33042 ft | 456 kts | 208° |
| 2026-05-04 03:26 | 19.71135 | -82.60729 | 33046 ft | 456 kts | 208° |
| 2026-05-04 03:27 | 19.65397 | -82.63598 | 33043 ft | 456 kts | 208° |
| 2026-05-04 03:27 | 19.59653 | -82.66466 | 33042 ft | 456 kts | 208° |
| 2026-05-04 03:28 | 19.53957 | -82.69309 | 33043 ft | 455 kts | 208° |
| 2026-05-04 03:28 | 19.48230 | -82.72164 | 33041 ft | 454 kts | 208° |
| 2026-05-04 03:29 | 19.42505 | -82.75017 | 33042 ft | 454 kts | 208° |
| 2026-05-04 03:29 | 19.36789 | -82.77863 | 33039 ft | 453 kts | 208° |
| 2026-05-04 03:30 | 19.31087 | -82.80699 | 33038 ft | 452 kts | 208° |
| 2026-05-04 03:30 | 19.25386 | -82.83533 | 33039 ft | 452 kts | 208° |
| 2026-05-04 03:31 | 19.19694 | -82.86361 | 33038 ft | 452 kts | 208° |
| 2026-05-04 03:31 | 19.14035 | -82.89170 | 33039 ft | 452 kts | 208° |
| 2026-05-04 03:32 | 19.08332 | -82.91998 | 33042 ft | 452 kts | 208° |
| 2026-05-04 03:32 | 19.02626 | -82.94826 | 33045 ft | 453 kts | 208° |
| 2026-05-04 03:33 | 18.96917 | -82.97654 | 33042 ft | 453 kts | 208° |
| 2026-05-04 03:33 | 18.91192 | -83.00486 | 33039 ft | 454 kts | 208° |
| 2026-05-04 03:34 | 18.85495 | -83.03303 | 33039 ft | 455 kts | 208° |
| 2026-05-04 03:34 | 18.79759 | -83.06137 | 33038 ft | 456 kts | 208° |
| 2026-05-04 03:35 | 18.74014 | -83.08974 | 33034 ft | 456 kts | 208° |
| 2026-05-04 03:35 | 18.68249 | -83.11817 | 33035 ft | 456 kts | 208° |
| 2026-05-04 03:36 | 18.62492 | -83.14655 | 33035 ft | 457 kts | 208° |
| 2026-05-04 03:36 | 18.56733 | -83.17492 | 33030 ft | 457 kts | 208° |
| 2026-05-04 03:37 | 18.51003 | -83.20312 | 33036 ft | 457 kts | 208° |
| 2026-05-04 03:37 | 18.45240 | -83.23147 | 33033 ft | 457 kts | 208° |
| 2026-05-04 03:38 | 18.39439 | -83.25998 | 33036 ft | 457 kts | 208° |
| 2026-05-04 03:38 | 18.33713 | -83.28810 | 33034 ft | 457 kts | 208° |
| 2026-05-04 03:39 | 18.27944 | -83.31641 | 33035 ft | 457 kts | 208° |
| 2026-05-04 03:39 | 18.22178 | -83.34469 | 33035 ft | 457 kts | 208° |
| 2026-05-04 03:40 | 18.16406 | -83.37298 | 33035 ft | 457 kts | 208° |
| 2026-05-04 03:40 | 18.10637 | -83.40122 | 33031 ft | 457 kts | 208° |
| 2026-05-04 03:41 | 18.04860 | -83.42949 | 33030 ft | 457 kts | 207° |
| 2026-05-04 03:41 | 17.99125 | -83.45754 | 33030 ft | 458 kts | 207° |
| 2026-05-04 03:42 | 17.93349 | -83.48576 | 33028 ft | 458 kts | 207° |
| 2026-05-04 03:42 | 17.87569 | -83.51398 | 33029 ft | 458 kts | 207° |
| 2026-05-04 03:43 | 17.81787 | -83.54219 | 33029 ft | 458 kts | 207° |
| 2026-05-04 03:43 | 17.76003 | -83.57039 | 33031 ft | 458 kts | 207° |
| 2026-05-04 03:44 | 17.70208 | -83.59862 | 33030 ft | 459 kts | 207° |
| 2026-05-04 03:44 | 17.64414 | -83.62683 | 33030 ft | 459 kts | 207° |
| 2026-05-04 03:45 | 17.58619 | -83.65503 | 33031 ft | 459 kts | 207° |
| 2026-05-04 03:45 | 17.52867 | -83.68299 | 33028 ft | 459 kts | 207° |
| 2026-05-04 03:46 | 17.47070 | -83.71115 | 33026 ft | 459 kts | 207° |
| 2026-05-04 03:46 | 17.41281 | -83.73926 | 33024 ft | 459 kts | 207° |
| 2026-05-04 03:47 | 17.35486 | -83.76738 | 33023 ft | 458 kts | 207° |
| 2026-05-04 03:47 | 17.29697 | -83.79544 | 33025 ft | 458 kts | 207° |
| 2026-05-04 03:48 | 17.23935 | -83.82336 | 33019 ft | 458 kts | 207° |
| 2026-05-04 03:48 | 17.18144 | -83.85139 | 33023 ft | 458 kts | 207° |
| 2026-05-04 03:49 | 17.12354 | -83.87941 | 33022 ft | 458 kts | 207° |
| 2026-05-04 03:49 | 17.06573 | -83.90736 | 33019 ft | 458 kts | 207° |
| 2026-05-04 03:50 | 17.00832 | -83.93510 | 33023 ft | 457 kts | 207° |
| 2026-05-04 03:50 | 16.95048 | -83.96304 | 33023 ft | 457 kts | 207° |
| 2026-05-04 03:51 | 16.89272 | -83.99090 | 33021 ft | 457 kts | 207° |
| 2026-05-04 03:51 | 16.83494 | -84.01867 | 33024 ft | 457 kts | 207° |
| 2026-05-04 03:52 | 16.77713 | -84.04643 | 33021 ft | 457 kts | 206° |
| 2026-05-04 03:52 | 16.71940 | -84.07415 | 33020 ft | 457 kts | 206° |
| 2026-05-04 03:53 | 16.66169 | -84.10184 | 33016 ft | 457 kts | 206° |
| 2026-05-04 03:53 | 16.60389 | -84.12956 | 33022 ft | 457 kts | 206° |
| 2026-05-04 03:54 | 16.54652 | -84.15706 | 33018 ft | 457 kts | 206° |
| 2026-05-04 03:54 | 16.48872 | -84.18475 | 33020 ft | 457 kts | 206° |
| 2026-05-04 03:55 | 16.43078 | -84.21248 | 33022 ft | 458 kts | 206° |
| 2026-05-04 03:55 | 16.37280 | -84.24010 | 33019 ft | 458 kts | 206° |
| 2026-05-04 03:56 | 16.31473 | -84.26769 | 33021 ft | 459 kts | 206° |
| 2026-05-04 03:56 | 16.25663 | -84.29531 | 33024 ft | 459 kts | 206° |
| 2026-05-04 03:57 | 16.19881 | -84.32279 | 33025 ft | 459 kts | 206° |
| 2026-05-04 03:57 | 16.14065 | -84.35041 | 33016 ft | 460 kts | 206° |
| 2026-05-04 03:58 | 16.05333 | -84.39186 | 33024 ft | 459 kts | 206° |
| 2026-05-04 03:58 | 15.99516 | -84.41945 | 33009 ft | 459 kts | 206° |
| 2026-05-04 03:59 | 15.93695 | -84.44709 | 33015 ft | 459 kts | 206° |
| 2026-05-04 03:59 | 15.87881 | -84.47471 | 33015 ft | 459 kts | 206° |
| 2026-05-04 04:00 | 15.82105 | -84.50214 | 33010 ft | 459 kts | 206° |
| 2026-05-04 04:00 | 15.76272 | -84.52981 | 33005 ft | 460 kts | 206° |
| 2026-05-04 04:01 | 15.70447 | -84.55742 | 33003 ft | 460 kts | 206° |
| 2026-05-04 04:01 | 15.64624 | -84.58502 | 33010 ft | 460 kts | 205° |
| 2026-05-04 04:02 | 15.58835 | -84.61244 | 33003 ft | 460 kts | 205° |
| 2026-05-04 04:02 | 15.53014 | -84.63999 | 33005 ft | 460 kts | 205° |
| 2026-05-04 04:03 | 15.47189 | -84.66751 | 33003 ft | 460 kts | 205° |
| 2026-05-04 04:03 | 15.41366 | -84.69499 | 33005 ft | 460 kts | 205° |
| 2026-05-04 04:04 | 15.35543 | -84.72245 | 33004 ft | 460 kts | 205° |
| 2026-05-04 04:04 | 15.29713 | -84.74994 | 33000 ft | 460 kts | 205° |
| 2026-05-04 04:05 | 15.23891 | -84.77738 | 33004 ft | 460 kts | 205° |
| 2026-05-04 04:05 | 15.18062 | -84.80483 | 33004 ft | 460 kts | 205° |
| 2026-05-04 04:06 | 15.12283 | -84.83204 | 32999 ft | 460 kts | 205° |
| 2026-05-04 04:06 | 15.06461 | -84.85943 | 32994 ft | 460 kts | 205° |
| 2026-05-04 04:07 | 15.00626 | -84.88686 | 32998 ft | 460 kts | 205° |
| 2026-05-04 04:07 | 14.94806 | -84.91421 | 32994 ft | 460 kts | 205° |
| 2026-05-04 04:08 | 14.88979 | -84.94157 | 32995 ft | 459 kts | 205° |
| 2026-05-04 04:08 | 14.83147 | -84.96894 | 32974 ft | 460 kts | 205° |
| 2026-05-04 04:09 | 14.77364 | -84.99607 | 32987 ft | 459 kts | 205° |
| 2026-05-04 04:09 | 14.71551 | -85.02332 | 32990 ft | 459 kts | 205° |
| 2026-05-04 04:10 | 14.66710 | -85.04600 | 32983 ft | 459 kts | 205° |
| 2026-05-04 04:10 | 14.60895 | -85.07323 | 32982 ft | 459 kts | 205° |
| 2026-05-04 04:11 | 14.55080 | -85.10044 | 32991 ft | 459 kts | 205° |
| 2026-05-04 04:11 | 14.49266 | -85.12763 | 32986 ft | 459 kts | 205° |
| 2026-05-04 04:12 | 14.43450 | -85.15482 | 32991 ft | 459 kts | 205° |
| 2026-05-04 04:12 | 14.37629 | -85.18202 | 32991 ft | 459 kts | 205° |
| 2026-05-04 04:13 | 14.31808 | -85.20920 | 32990 ft | 459 kts | 205° |
| 2026-05-04 04:13 | 14.25989 | -85.23636 | 32994 ft | 459 kts | 205° |
| 2026-05-04 04:14 | 14.20169 | -85.26350 | 32995 ft | 459 kts | 205° |
| 2026-05-04 04:14 | 14.14390 | -85.29045 | 32993 ft | 459 kts | 205° |
| 2026-05-04 04:15 | 14.08571 | -85.31756 | 32993 ft | 458 kts | 205° |
| 2026-05-04 04:15 | 14.02750 | -85.34467 | 32989 ft | 458 kts | 205° |
| 2026-05-04 04:16 | 13.96940 | -85.37173 | 32994 ft | 458 kts | 205° |
| 2026-05-04 04:16 | 13.91130 | -85.39879 | 32987 ft | 458 kts | 205° |
| 2026-05-04 04:17 | 13.85370 | -85.42561 | 32990 ft | 458 kts | 205° |
| 2026-05-04 04:17 | 13.79564 | -85.45264 | 32989 ft | 458 kts | 205° |
| 2026-05-04 04:18 | 13.73750 | -85.47968 | 32991 ft | 458 kts | 205° |
| 2026-05-04 04:18 | 13.67946 | -85.50666 | 32992 ft | 458 kts | 205° |
| 2026-05-04 04:19 | 13.62137 | -85.53365 | 32994 ft | 458 kts | 205° |
| 2026-05-04 04:19 | 13.56330 | -85.56061 | 32992 ft | 458 kts | 205° |
| 2026-05-04 04:20 | 13.50523 | -85.58757 | 32996 ft | 458 kts | 205° |
| 2026-05-04 04:20 | 13.44749 | -85.61435 | 32993 ft | 458 kts | 205° |
| 2026-05-04 04:21 | 13.38939 | -85.64129 | 33000 ft | 458 kts | 205° |
| 2026-05-04 04:21 | 13.33144 | -85.66814 | 32989 ft | 457 kts | 205° |
| 2026-05-04 04:22 | 13.27343 | -85.69501 | 33008 ft | 457 kts | 205° |
| 2026-05-04 04:22 | 13.21537 | -85.72189 | 32999 ft | 457 kts | 205° |
| 2026-05-04 04:23 | 13.15739 | -85.74872 | 33000 ft | 457 kts | 205° |
| 2026-05-04 04:23 | 13.09946 | -85.77552 | 32999 ft | 456 kts | 205° |
| 2026-05-04 04:24 | 13.04184 | -85.80176 | 32997 ft | 456 kts | 203° |
| 2026-05-04 04:24 | 12.98285 | -85.82621 | 32993 ft | 456 kts | 202° |
| 2026-05-04 04:25 | 12.92383 | -85.85019 | 32993 ft | 456 kts | 202° |
| 2026-05-04 04:25 | 12.86479 | -85.87444 | 32982 ft | 457 kts | 202° |
| 2026-05-04 04:26 | 12.80575 | -85.89887 | 32982 ft | 457 kts | 202° |
| 2026-05-04 04:26 | 12.74674 | -85.92333 | 32974 ft | 458 kts | 202° |
| 2026-05-04 04:27 | 12.68801 | -85.94766 | 32969 ft | 458 kts | 202° |
| 2026-05-04 04:27 | 12.62895 | -85.97210 | 32957 ft | 459 kts | 202° |
| 2026-05-04 04:28 | 12.56957 | -85.99666 | 32953 ft | 460 kts | 202° |
| 2026-05-04 04:28 | 12.51025 | -86.02118 | 32946 ft | 460 kts | 202° |
| 2026-05-04 04:29 | 12.45083 | -86.04574 | 32942 ft | 461 kts | 202° |
| 2026-05-04 04:29 | 12.39130 | -86.07032 | 32953 ft | 461 kts | 202° |
| 2026-05-04 04:30 | 12.33180 | -86.09488 | 32952 ft | 461 kts | 202° |
| 2026-05-04 04:30 | 12.30173 | -86.10729 | 32366 ft | 468 kts | 202° |
| 2026-05-04 04:30 | 12.27161 | -86.11972 | 31785 ft | 465 kts | 202° |
| 2026-05-04 04:31 | 12.24178 | -86.13203 | 31321 ft | 460 kts | 202° |
| 2026-05-04 04:31 | 12.21223 | -86.14421 | 30828 ft | 457 kts | 202° |
| 2026-05-04 04:31 | 12.18282 | -86.15626 | 30312 ft | 454 kts | 200° |
| 2026-05-04 04:31 | 12.15214 | -86.16367 | 29767 ft | 452 kts | 185° |
| 2026-05-04 04:32 | 12.12094 | -86.16325 | 29244 ft | 447 kts | 172° |
| 2026-05-04 04:32 | 12.09131 | -86.15579 | 28709 ft | 443 kts | 159° |
| 2026-05-04 04:32 | 12.06283 | -86.14413 | 28221 ft | 439 kts | 158° |
| 2026-05-04 04:32 | 12.03469 | -86.13223 | 27706 ft | 435 kts | 157° |
| 2026-05-04 04:33 | 12.00678 | -86.12041 | 27208 ft | 432 kts | 158° |
| 2026-05-04 04:33 | 11.97903 | -86.10880 | 26717 ft | 429 kts | 158° |
| 2026-05-04 04:33 | 11.95147 | -86.09740 | 26226 ft | 426 kts | 158° |
| 2026-05-04 04:33 | 11.92414 | -86.08619 | 25722 ft | 424 kts | 158° |
| 2026-05-04 04:34 | 11.89671 | -86.07502 | 25228 ft | 421 kts | 158° |
| 2026-05-04 04:34 | 11.86952 | -86.06397 | 24731 ft | 419 kts | 158° |
| 2026-05-04 04:34 | 11.84246 | -86.05298 | 24234 ft | 418 kts | 158° |
| 2026-05-04 04:34 | 11.81553 | -86.04205 | 23746 ft | 416 kts | 158° |
| 2026-05-04 04:35 | 11.78868 | -86.03115 | 23204 ft | 415 kts | 158° |
| 2026-05-04 04:35 | 11.76229 | -86.02044 | 22697 ft | 412 kts | 158° |
| 2026-05-04 04:35 | 11.73576 | -86.00967 | 22196 ft | 408 kts | 158° |
| 2026-05-04 04:35 | 11.70945 | -85.99900 | 21713 ft | 405 kts | 158° |
| 2026-05-04 04:36 | 11.68342 | -85.98843 | 21244 ft | 401 kts | 158° |
| 2026-05-04 04:36 | 11.65753 | -85.97793 | 20775 ft | 398 kts | 158° |
| 2026-05-04 04:36 | 11.63189 | -85.96753 | 20309 ft | 396 kts | 157° |
| 2026-05-04 04:36 | 11.60626 | -85.95713 | 19826 ft | 394 kts | 157° |
| 2026-05-04 04:37 | 11.53042 | -85.92637 | 18424 ft | 388 kts | 157° |
| 2026-05-04 04:37 | 11.50540 | -85.91624 | 17912 ft | 386 kts | 156° |
| 2026-05-04 04:38 | 11.48050 | -85.90616 | 17429 ft | 383 kts | 157° |
| 2026-05-04 04:38 | 11.45578 | -85.89615 | 16960 ft | 380 kts | 156° |
| 2026-05-04 04:38 | 11.43125 | -85.88622 | 16508 ft | 377 kts | 156° |
| 2026-05-04 04:38 | 11.40728 | -85.87652 | 16065 ft | 375 kts | 156° |
| 2026-05-04 04:39 | 11.38315 | -85.86674 | 15620 ft | 372 kts | 156° |
| 2026-05-04 04:39 | 11.35919 | -85.85705 | 15181 ft | 369 kts | 156° |
| 2026-05-04 04:39 | 11.33536 | -85.84740 | 14725 ft | 367 kts | 156° |
| 2026-05-04 04:39 | 11.31166 | -85.83781 | 14265 ft | 366 kts | 156° |
| 2026-05-04 04:40 | 11.28802 | -85.82824 | 13839 ft | 364 kts | 156° |
| 2026-05-04 04:40 | 11.26457 | -85.81875 | 13364 ft | 362 kts | 156° |
| 2026-05-04 04:40 | 11.24125 | -85.80932 | 12936 ft | 359 kts | 156° |
| 2026-05-04 04:40 | 11.21809 | -85.79996 | 12516 ft | 355 kts | 156° |
| 2026-05-04 04:41 | 11.19514 | -85.79084 | 12083 ft | 353 kts | 156° |
| 2026-05-04 04:41 | 11.17216 | -85.78209 | 11657 ft | 351 kts | 157° |
| 2026-05-04 04:41 | 11.14936 | -85.77349 | 11229 ft | 348 kts | 157° |
| 2026-05-04 04:41 | 11.12700 | -85.76504 | 10822 ft | 346 kts | 157° |
| 2026-05-04 04:42 | 11.10470 | -85.75659 | 10638 ft | 336 kts | 156° |
| 2026-05-04 04:42 | 11.08310 | -85.74839 | 10470 ft | 327 kts | 156° |
| 2026-05-04 04:42 | 11.06212 | -85.74042 | 10330 ft | 317 kts | 156° |
| 2026-05-04 04:42 | 11.04183 | -85.73238 | 10200 ft | 307 kts | 155° |
| 2026-05-04 04:43 | 11.02239 | -85.72434 | 10077 ft | 299 kts | 154° |
| 2026-05-04 04:43 | 11.00340 | -85.71648 | 9958 ft | 290 kts | 154° |
| 2026-05-04 04:43 | 10.98462 | -85.70874 | 9580 ft | 291 kts | 154° |
| 2026-05-04 04:43 | 10.96593 | -85.70106 | 9288 ft | 289 kts | 154° |
| 2026-05-04 04:44 | 10.94713 | -85.69374 | 8974 ft | 289 kts | 157° |
| 2026-05-04 04:44 | 10.92825 | -85.68698 | 8678 ft | 287 kts | 158° |
| 2026-05-04 04:44 | 10.90936 | -85.68032 | 8380 ft | 286 kts | 158° |
| 2026-05-04 04:44 | 10.89082 | -85.67372 | 8093 ft | 285 kts | 157° |
| 2026-05-04 04:45 | 10.87208 | -85.66702 | 7800 ft | 285 kts | 158° |
| 2026-05-04 04:45 | 10.85340 | -85.66031 | 7504 ft | 284 kts | 157° |
| 2026-05-04 04:45 | 10.83481 | -85.65362 | 7226 ft | 282 kts | 158° |
| 2026-05-04 04:47 | 10.77180 | -85.57140 | 6246 ft | 250 kts | 112° |
| 2026-05-04 04:47 | 10.76457 | -85.55528 | 6072 ft | 251 kts | 112° |
| 2026-05-04 04:47 | 10.75729 | -85.53910 | 5804 ft | 254 kts | 112° |
| 2026-05-04 04:47 | 10.74992 | -85.52280 | 5545 ft | 253 kts | 112° |
| 2026-05-04 04:48 | 10.74256 | -85.50656 | 5284 ft | 251 kts | 112° |
| 2026-05-04 04:49 | 10.71386 | -85.44336 | 4276 ft | 235 kts | 112° |
| 2026-05-04 04:49 | 10.70519 | -85.42974 | 4002 ft | 229 kts | 135° |
| 2026-05-04 04:49 | 10.69179 | -85.42137 | 3712 ft | 225 kts | 154° |
| 2026-05-04 04:49 | 10.67732 | -85.41581 | 3415 ft | 220 kts | 158° |
| 2026-05-04 04:50 | 10.66281 | -85.41136 | 3083 ft | 218 kts | 171° |
| 2026-05-04 04:50 | 10.64823 | -85.41371 | 2785 ft | 216 kts | 205° |
| 2026-05-04 04:50 | 10.63733 | -85.42365 | 2483 ft | 208 kts | 237° |
| 2026-05-04 04:50 | 10.63201 | -85.43676 | 2280 ft | 194 kts | 251° |
| 2026-05-04 04:51 | 10.62760 | -85.44912 | 2061 ft | 177 kts | 249° |
| 2026-05-04 04:51 | 10.62350 | -85.46046 | 1813 ft | 168 kts | 249° |
| 2026-05-04 04:51 | 10.61951 | -85.47158 | 1612 ft | 166 kts | 249° |
| 2026-05-04 04:51 | 10.61557 | -85.48258 | 1385 ft | 165 kts | 249° |
| 2026-05-04 04:52 | 10.61162 | -85.49358 | 1159 ft | 165 kts | 249° |
| 2026-05-04 04:52 | 10.60782 | -85.50457 | 933 ft | 163 kts | 248° |
| 2026-05-04 04:52 | 10.60389 | -85.51531 | 735 ft | 160 kts | 249° |
| 2026-05-04 04:52 | 10.60007 | -85.52592 | 481 ft | 158 kts | 248° |
| 2026-05-04 04:53 | 10.59634 | -85.53631 | 280 ft | 152 kts | 249° |
| 2026-05-04 04:53 | 10.59340 | -85.54447 | 267 ft | 94 kts | 250° |
| 2026-05-04 04:53 | 10.59192 | -85.54861 | 264 ft | 34 kts | 250° |
| 2026-05-04 04:53 | 10.59129 | -85.55031 | 264 ft | 25 kts | 250° |
| 2026-05-04 04:54 | 10.59090 | -85.55104 | 263 ft | 4 kts | 209° |
| 2026-05-04 04:54 | 10.59082 | -85.55136 | 264 ft | 5 kts | 310° |
| 2026-05-04 04:54 | 10.59105 | -85.55113 | 264 ft | 10 kts | 72° |
| 2026-05-04 04:54 | 10.59136 | -85.55013 | 264 ft | 18 kts | 71° |
| 2026-05-04 04:55 | 10.59185 | -85.54878 | 264 ft | 23 kts | 70° |
| 2026-05-04 04:55 | 10.59247 | -85.54705 | 264 ft | 27 kts | 70° |
| 2026-05-04 04:55 | 10.59308 | -85.54534 | 266 ft | 25 kts | 70° |
| 2026-05-04 04:55 | 10.59365 | -85.54375 | 268 ft | 23 kts | 70° |
| 2026-05-04 04:56 | 10.59420 | -85.54223 | 270 ft | 23 kts | 70° |
| 2026-05-04 04:56 | 10.59479 | -85.54064 | 272 ft | 24 kts | 70° |
| 2026-05-04 04:56 | 10.59535 | -85.53907 | 274 ft | 23 kts | 70° |
| 2026-05-04 04:56 | 10.59621 | -85.53831 | 275 ft | 18 kts | 343° |
| 2026-05-04 04:57 | 10.59690 | -85.53856 | 275 ft | 9 kts | 339° |
| 2026-05-04 04:57 | 10.59758 | -85.53877 | 275 ft | 12 kts | 360° |
| 2026-05-04 04:57 | 10.59806 | -85.53814 | 278 ft | 12 kts | 59° |
| 2026-05-04 04:57 | 10.59877 | -85.53814 | 276 ft | 10 kts | 340° |
| 2026-05-04 04:58 | 10.59906 | -85.53825 | 278 ft | 0 kts | 340° |